AAL1792 KDFW-KLIT
Flight info
| Callsign | AAL1792 |
|---|---|
| Flight time | N/A |
| Altitude | 19000 |
| Route | FORCK3 FORCK ELD IZAAC Q30 VLKNN THRSR BESTT JONZE5 |
| Aircraft | A321/M-SDE2E3FGHIJ1RWXY/LB1 |
Departure
| Time | N/A |
|---|---|
| Airport | Dallas Fort Worth International Airport (KDFW) |
Arrival
| Time | 2026-04-28 21:59 |
|---|---|
| Airport | Bill & Hillary Clinton National Airport/Adams Field (KLIT) |
| Time | Latitude | Longitude | Altitude | Speed | Heading |
|---|---|---|---|---|---|
| 2026-04-28 21:34 | 33.61704 | -90.73132 | 34556 ft | 392 kts | 270° |
| 2026-04-28 21:35 | 33.61661 | -90.76374 | 34174 ft | 385 kts | 277° |
| 2026-04-28 21:35 | 33.62006 | -90.79514 | 33798 ft | 378 kts | 284° |
| 2026-04-28 21:35 | 33.62664 | -90.82544 | 33423 ft | 376 kts | 290° |
| 2026-04-28 21:35 | 33.63618 | -90.85455 | 33047 ft | 377 kts | 295° |
| 2026-04-28 21:36 | 33.64860 | -90.88226 | 32671 ft | 378 kts | 301° |
| 2026-04-28 21:36 | 33.66366 | -90.90790 | 32296 ft | 380 kts | 307° |
| 2026-04-28 21:36 | 33.68157 | -90.93164 | 31889 ft | 384 kts | 313° |
| 2026-04-28 21:36 | 33.70117 | -90.95334 | 31358 ft | 383 kts | 315° |
| 2026-04-28 21:37 | 33.72095 | -90.97459 | 30650 ft | 385 kts | 315° |
| 2026-04-28 21:37 | 33.74095 | -90.99594 | 29798 ft | 390 kts | 315° |
| 2026-04-28 21:37 | 33.76118 | -91.01750 | 28919 ft | 394 kts | 315° |
| 2026-04-28 21:37 | 33.78161 | -91.03928 | 28045 ft | 398 kts | 315° |
| 2026-04-28 21:38 | 33.80247 | -91.06150 | 27144 ft | 402 kts | 316° |
| 2026-04-28 21:38 | 33.82341 | -91.08399 | 26219 ft | 406 kts | 315° |
| 2026-04-28 21:38 | 33.84432 | -91.10662 | 25273 ft | 410 kts | 315° |
| 2026-04-28 21:38 | 33.86549 | -91.12933 | 24290 ft | 415 kts | 315° |
| 2026-04-28 21:39 | 33.88701 | -91.15247 | 23265 ft | 419 kts | 316° |
| 2026-04-28 21:39 | 33.90871 | -91.17578 | 22223 ft | 424 kts | 315° |
| 2026-04-28 21:39 | 33.93064 | -91.19939 | 21165 ft | 428 kts | 316° |
| 2026-04-28 21:39 | 33.95289 | -91.22311 | 20402 ft | 425 kts | 316° |
| 2026-04-28 21:40 | 33.97474 | -91.24636 | 19901 ft | 417 kts | 316° |
| 2026-04-28 21:40 | 33.99637 | -91.26940 | 19395 ft | 409 kts | 316° |
| 2026-04-28 21:40 | 34.01722 | -91.29166 | 19014 ft | 399 kts | 316° |
| 2026-04-28 21:40 | 34.03749 | -91.31332 | 18939 ft | 381 kts | 316° |
| 2026-04-28 21:41 | 34.05717 | -91.33437 | 18571 ft | 373 kts | 316° |
| 2026-04-28 21:41 | 34.07618 | -91.35476 | 18073 ft | 369 kts | 316° |
| 2026-04-28 21:41 | 34.09546 | -91.37547 | 17565 ft | 366 kts | 316° |
| 2026-04-28 21:41 | 34.11413 | -91.39554 | 17070 ft | 362 kts | 316° |
| 2026-04-28 21:42 | 34.13285 | -91.41567 | 16568 ft | 359 kts | 316° |
| 2026-04-28 21:42 | 34.15140 | -91.43562 | 16066 ft | 356 kts | 316° |
| 2026-04-28 21:42 | 34.16984 | -91.45546 | 15562 ft | 353 kts | 316° |
| 2026-04-28 21:42 | 34.18800 | -91.47501 | 15061 ft | 350 kts | 316° |
| 2026-04-28 21:43 | 34.20600 | -91.49439 | 14563 ft | 348 kts | 316° |
| 2026-04-28 21:43 | 34.22397 | -91.51376 | 14062 ft | 346 kts | 316° |
| 2026-04-28 21:43 | 34.24197 | -91.53318 | 13558 ft | 344 kts | 316° |
| 2026-04-28 21:43 | 34.25968 | -91.55228 | 13057 ft | 342 kts | 317° |
| 2026-04-28 21:44 | 34.27910 | -91.56902 | 12549 ft | 343 kts | 327° |
| 2026-04-28 21:44 | 34.29991 | -91.58290 | 12050 ft | 341 kts | 329° |
| 2026-04-28 21:44 | 34.32023 | -91.59573 | 11570 ft | 326 kts | 330° |
| 2026-04-28 21:44 | 34.33995 | -91.60796 | 11067 ft | 311 kts | 330° |
| 2026-04-28 21:45 | 34.35891 | -91.61958 | 10563 ft | 299 kts | 330° |
| 2026-04-28 21:45 | 34.37708 | -91.63063 | 10125 ft | 288 kts | 330° |
| 2026-04-28 21:45 | 34.39468 | -91.64130 | 9806 ft | 283 kts | 330° |
| 2026-04-28 21:45 | 34.41215 | -91.65187 | 9427 ft | 280 kts | 329° |
| 2026-04-28 21:46 | 34.42951 | -91.66238 | 9050 ft | 277 kts | 329° |
| 2026-04-28 21:46 | 34.44665 | -91.67275 | 8675 ft | 275 kts | 329° |
| 2026-04-28 21:46 | 34.46359 | -91.68299 | 8300 ft | 272 kts | 329° |
| 2026-04-28 21:46 | 34.48056 | -91.69326 | 7921 ft | 270 kts | 329° |
| 2026-04-28 21:47 | 34.49162 | -91.69994 | 7661 ft | 269 kts | 329° |
| 2026-04-28 21:47 | 34.51380 | -91.71338 | 7207 ft | 270 kts | 329° |
| 2026-04-28 21:47 | 34.53072 | -91.72368 | 6957 ft | 275 kts | 329° |
| 2026-04-28 21:47 | 34.54784 | -91.73413 | 6706 ft | 275 kts | 329° |
| 2026-04-28 21:48 | 34.56495 | -91.74460 | 6454 ft | 274 kts | 329° |
| 2026-04-28 21:48 | 34.58199 | -91.75504 | 6203 ft | 274 kts | 329° |
| 2026-04-28 21:48 | 34.59892 | -91.76543 | 5953 ft | 273 kts | 329° |
| 2026-04-28 21:48 | 34.61579 | -91.77580 | 5703 ft | 273 kts | 329° |
| 2026-04-28 21:49 | 34.63252 | -91.78609 | 5455 ft | 272 kts | 329° |
| 2026-04-28 21:49 | 34.64949 | -91.79654 | 5203 ft | 272 kts | 329° |
| 2026-04-28 21:49 | 34.66638 | -91.80695 | 4952 ft | 272 kts | 329° |
| 2026-04-28 21:49 | 34.68301 | -91.81721 | 4704 ft | 271 kts | 329° |
| 2026-04-28 21:50 | 34.69977 | -91.82755 | 4439 ft | 271 kts | 329° |
| 2026-04-28 21:50 | 34.71657 | -91.83793 | 4187 ft | 270 kts | 329° |
| 2026-04-28 21:50 | 34.73334 | -91.84830 | 3936 ft | 270 kts | 330° |
| 2026-04-28 21:50 | 34.75015 | -91.85870 | 3685 ft | 270 kts | 330° |
| 2026-04-28 21:51 | 34.76676 | -91.86900 | 3435 ft | 269 kts | 330° |
| 2026-04-28 21:51 | 34.78299 | -91.87994 | 3176 ft | 266 kts | 319° |
| 2026-04-28 21:51 | 34.79532 | -91.89593 | 3000 ft | 254 kts | 303° |
| 2026-04-28 21:51 | 34.80507 | -91.91299 | 2991 ft | 241 kts | 300° |
| 2026-04-28 21:52 | 34.81434 | -91.93008 | 2990 ft | 240 kts | 300° |
| 2026-04-28 21:52 | 34.82358 | -91.94728 | 2865 ft | 241 kts | 300° |
| 2026-04-28 21:52 | 34.83264 | -91.96419 | 2615 ft | 240 kts | 300° |
| 2026-04-28 21:52 | 34.84171 | -91.98109 | 2364 ft | 238 kts | 300° |
| 2026-04-28 21:53 | 34.85079 | -91.99802 | 2112 ft | 237 kts | 300° |
| 2026-04-28 21:53 | 34.85670 | -92.00904 | 2004 ft | 233 kts | 300° |
| 2026-04-28 21:53 | 34.86754 | -92.03063 | 1980 ft | 214 kts | 293° |
| 2026-04-28 21:53 | 34.87470 | -92.04594 | 1988 ft | 200 kts | 297° |
| 2026-04-28 21:54 | 34.87921 | -92.06070 | 2018 ft | 176 kts | 268° |
| 2026-04-28 21:54 | 34.87640 | -92.07439 | 1995 ft | 165 kts | 237° |
| 2026-04-28 21:54 | 34.86827 | -92.08409 | 1999 ft | 164 kts | 214° |
| 2026-04-28 21:54 | 34.85867 | -92.09151 | 1995 ft | 164 kts | 212° |
| 2026-04-28 21:55 | 34.84883 | -92.09884 | 1991 ft | 164 kts | 212° |
| 2026-04-28 21:55 | 34.84566 | -92.10119 | 1990 ft | 164 kts | 212° |
| 2026-04-28 21:55 | 34.82952 | -92.11329 | 1989 ft | 163 kts | 212° |
| 2026-04-28 21:55 | 34.81983 | -92.12054 | 1990 ft | 163 kts | 213° |
| 2026-04-28 21:56 | 34.81054 | -92.12855 | 1988 ft | 160 kts | 219° |
| 2026-04-28 21:56 | 34.80222 | -92.13724 | 1986 ft | 156 kts | 222° |
| 2026-04-28 21:56 | 34.79442 | -92.14633 | 1888 ft | 153 kts | 225° |
| 2026-04-28 21:56 | 34.78711 | -92.15548 | 1681 ft | 151 kts | 226° |
| 2026-04-28 21:57 | 34.77984 | -92.16489 | 1463 ft | 151 kts | 226° |
| 2026-04-28 21:57 | 34.77268 | -92.17385 | 1261 ft | 150 kts | 225° |
| 2026-04-28 21:57 | 34.76561 | -92.18325 | 1059 ft | 149 kts | 225° |
| 2026-04-28 21:57 | 34.75849 | -92.19229 | 862 ft | 149 kts | 225° |
| 2026-04-28 21:58 | 34.75129 | -92.20135 | 701 ft | 150 kts | 224° |
| 2026-04-28 21:58 | 34.74403 | -92.21062 | 486 ft | 149 kts | 225° |
| 2026-04-28 21:58 | 34.73696 | -92.21963 | 286 ft | 147 kts | 225° |
| 2026-04-28 21:58 | 34.73100 | -92.22719 | 271 ft | 86 kts | 227° |
| 2026-04-28 21:59 | 34.72895 | -92.22982 | 271 ft | 2 kts | 225° |
| 2026-04-28 21:59 | 34.72861 | -92.22986 | 271 ft | 6 kts | 130° |
| 2026-04-28 21:59 | 34.72837 | -92.22952 | 271 ft | 4 kts | 133° |
| 2026-04-28 22:00 | 34.72869 | -92.22823 | 271 ft | 18 kts | 51° |
| 2026-04-28 22:00 | 34.72979 | -92.22678 | 271 ft | 27 kts | 46° |
| 2026-04-28 22:00 | 34.73108 | -92.22517 | 271 ft | 25 kts | 45° |
| 2026-04-28 22:00 | 34.73140 | -92.22378 | 271 ft | 16 kts | 113° |
| 2026-04-28 22:01 | 34.73093 | -92.22250 | 271 ft | 16 kts | 110° |
| 2026-04-28 22:01 | 34.73061 | -92.22157 | 271 ft | 7 kts | 131° |
| 2026-04-28 22:01 | 34.73013 | -92.22152 | 271 ft | 7 kts | 197° |
| 2026-04-28 22:01 | 34.72969 | -92.22154 | 271 ft | 5 kts | 137° |
| 2026-04-28 22:02 | 34.72965 | -92.22145 | 271 ft | 0 kts | 111° |
| 2026-04-28 22:02 | 34.72958 | -92.22125 | 271 ft | 5 kts | 113° |
| 2026-04-28 22:02 | 34.72946 | -92.22090 | 271 ft | 4 kts | 111° |
| 2026-04-28 22:03 | 34.72942 | -92.22075 | 271 ft | 0 kts | 111° |
| 2026-04-28 22:03 | 34.72941 | -92.22073 | 271 ft | 0 kts | 112° |